sensor_id;sensor_type;location;lat;lon;timestamp;pressure;altitude;pressure_sealevel;temperature;humidity
76694;BME280;69667;52.136;5.424;2023-05-10T00:01:05;100930.38;;;12.40;100.00
76694;BME280;69667;52.136;5.424;2023-05-10T00:03:31;100928.50;;;12.40;100.00
76694;BME280;69667;52.136;5.424;2023-05-10T00:05:58;100924.06;;;12.39;100.00
76694;BME280;69667;52.136;5.424;2023-05-10T00:08:25;100921.13;;;12.42;100.00
76694;BME280;69667;52.136;5.424;2023-05-10T00:10:52;100929.09;;;12.44;100.00
76694;BME280;69667;52.136;5.424;2023-05-10T00:13:18;100919.16;;;12.44;100.00
76694;BME280;69667;52.136;5.424;2023-05-10T00:15:45;100922.81;;;12.43;100.00
76694;BME280;69667;52.136;5.424;2023-05-10T00:18:12;100919.16;;;12.44;100.00
76694;BME280;69667;52.136;5.424;2023-05-10T00:20:38;100918.28;;;12.44;100.00
76694;BME280;69667;52.136;5.424;2023-05-10T00:23:05;100916.56;;;12.43;100.00
76694;BME280;69667;52.136;5.424;2023-05-10T00:25:31;100918.28;;;12.44;100.00
76694;BME280;69667;52.136;5.424;2023-05-10T00:27:58;100919.03;;;12.46;100.00
76694;BME280;69667;52.136;5.424;2023-05-10T00:30:24;100910.78;;;12.47;100.00
76694;BME280;69667;52.136;5.424;2023-05-10T00:32:51;100914.47;;;12.46;100.00
76694;BME280;69667;52.136;5.424;2023-05-10T00:35:18;100916.31;;;12.46;100.00
76694;BME280;69667;52.136;5.424;2023-05-10T00:37:44;100910.78;;;12.47;100.00
76694;BME280;69667;52.136;5.424;2023-05-10T00:40:11;100911.38;;;12.51;100.00
76694;BME280;69667;52.136;5.424;2023-05-10T00:42:39;100909.41;;;12.53;100.00
76694;BME280;69667;52.136;5.424;2023-05-10T00:45:06;100914.84;;;12.53;100.00
76694;BME280;69667;52.136;5.424;2023-05-10T00:47:34;100907.69;;;12.52;100.00
76694;BME280;69667;52.136;5.424;2023-05-10T00:50:01;100912.97;;;12.53;100.00
76694;BME280;69667;52.136;5.424;2023-05-10T00:52:29;100912.00;;;12.54;100.00
76694;BME280;69667;52.136;5.424;2023-05-10T00:54:57;100903.88;;;12.54;100.00
76694;BME280;69667;52.136;5.424;2023-05-10T00:57:24;100917.53;;;12.53;100.00
76694;BME280;69667;52.136;5.424;2023-05-10T00:59:51;100907.19;;;12.47;100.00
76694;BME280;69667;52.136;5.424;2023-05-10T01:02:18;100908.81;;;12.49;100.00
76694;BME280;69667;52.136;5.424;2023-05-10T01:04:44;100918.16;;;12.45;100.00
76694;BME280;69667;52.136;5.424;2023-05-10T01:07:11;100921.84;;;12.44;100.00
76694;BME280;69667;52.136;5.424;2023-05-10T01:09:38;100917.53;;;12.42;100.00
76694;BME280;69667;52.136;5.424;2023-05-10T01:12:04;100913.72;;;12.44;100.00
76694;BME280;69667;52.136;5.424;2023-05-10T01:14:34;100914.00;;;12.41;100.00
76694;BME280;69667;52.136;5.424;2023-05-10T01:17:03;100923.94;;;12.41;100.00
76694;BME280;69667;52.136;5.424;2023-05-10T01:19:31;100916.56;;;12.43;100.00
76694;BME280;69667;52.136;5.424;2023-05-10T01:22:24;100922.25;;;12.40;100.00
76694;BME280;69667;52.136;5.424;2023-05-10T01:25:16;100925.78;;;12.40;100.00
76694;BME280;69667;52.136;5.424;2023-05-10T01:31:15;100913.72;;;12.44;100.00
76694;BME280;69667;52.136;5.424;2023-05-10T01:34:07;100917.53;;;12.42;100.00
76694;BME280;69667;52.136;5.424;2023-05-10T01:36:44;100920.97;;;12.44;100.00
76694;BME280;69667;52.136;5.424;2023-05-10T01:39:25;100917.53;;;12.42;100.00
76694;BME280;69667;52.136;5.424;2023-05-10T01:42:04;100918.91;;;12.36;100.00
76694;BME280;69667;52.136;5.424;2023-05-10T01:44:39;100918.19;;;12.34;100.00
76694;BME280;69667;52.136;5.424;2023-05-10T01:47:11;100928.88;;;12.36;100.00
76694;BME280;69667;52.136;5.424;2023-05-10T01:49:43;100920.63;;;12.37;100.00
76694;BME280;69667;52.136;5.424;2023-05-10T01:52:15;100925.78;;;12.40;100.00
76694;BME280;69667;52.136;5.424;2023-05-10T01:54:49;100914.97;;;12.40;100.00
76694;BME280;69667;52.136;5.424;2023-05-10T01:57:16;100923.09;;;12.40;100.00
76694;BME280;69667;52.136;5.424;2023-05-10T01:59:49;100923.47;;;12.36;100.00
76694;BME280;69667;52.136;5.424;2023-05-10T02:02:20;100925.44;;;12.34;100.00
76694;BME280;69667;52.136;5.424;2023-05-10T02:04:49;100921.38;;;12.28;100.00
76694;BME280;69667;52.136;5.424;2023-05-10T02:07:17;100923.34;;;12.26;100.00
76694;BME280;69667;52.136;5.424;2023-05-10T02:09:45;100915.38;;;12.25;100.00
76694;BME280;69667;52.136;5.424;2023-05-10T02:12:15;100930.59;;;12.26;100.00
76694;BME280;69667;52.136;5.424;2023-05-10T02:14:44;100930.34;;;12.29;100.00
76694;BME280;69667;52.136;5.424;2023-05-10T02:17:11;100929.25;;;12.31;100.00
76694;BME280;69667;52.136;5.424;2023-05-10T02:19:40;100932.94;;;12.30;100.00
76694;BME280;69667;52.136;5.424;2023-05-10T02:22:09;100935.38;;;12.33;100.00
76694;BME280;69667;52.136;5.424;2023-05-10T02:24:36;100930.09;;;12.32;100.00
76694;BME280;69667;52.136;5.424;2023-05-10T02:27:05;100931.97;;;12.31;100.00
76694;BME280;69667;52.136;5.424;2023-05-10T02:29:33;100936.13;;;12.35;100.00
76694;BME280;69667;52.136;5.424;2023-05-10T02:32:00;100941.53;;;12.35;100.00
76694;BME280;69667;52.136;5.424;2023-05-10T02:34:29;100939.97;;;12.33;100.00
76694;BME280;69667;52.136;5.424;2023-05-10T02:36:56;100942.78;;;12.31;100.00
76694;BME280;69667;52.136;5.424;2023-05-10T02:39:24;100943.50;;;12.33;100.00
76694;BME280;69667;52.136;5.424;2023-05-10T02:41:52;100946.97;;;12.35;100.00
76694;BME280;69667;52.136;5.424;2023-05-10T02:44:20;100949.03;;;12.32;100.00
76694;BME280;69667;52.136;5.424;2023-05-10T02:46:46;100958.16;;;12.31;100.00
76694;BME280;69667;52.136;5.424;2023-05-10T02:49:14;100952.75;;;12.31;100.00
76694;BME280;69667;52.136;5.424;2023-05-10T02:51:44;100952.00;;;12.29;100.00
76694;BME280;69667;52.136;5.424;2023-05-10T02:54:24;100955.84;;;12.26;100.00
76694;BME280;69667;52.136;5.424;2023-05-10T02:56:57;100948.44;;;12.28;100.00
76694;BME280;69667;52.136;5.424;2023-05-10T02:59:27;100952.38;;;12.24;100.00
76694;BME280;69667;52.136;5.424;2023-05-10T03:01:54;100951.75;;;12.21;100.00
76694;BME280;69667;52.136;5.424;2023-05-10T03:04:20;100956.94;;;12.13;100.00
76694;BME280;69667;52.136;5.424;2023-05-10T03:06:47;100961.34;;;12.14;100.00
76694;BME280;69667;52.136;5.424;2023-05-10T03:09:14;100955.94;;;12.14;100.00
76694;BME280;69667;52.136;5.424;2023-05-10T03:12:12;100956.69;;;12.05;100.00
76694;BME280;69667;52.136;5.424;2023-05-10T03:14:49;100961.47;;;12.01;100.00
76694;BME280;69667;52.136;5.424;2023-05-10T03:17:35;100952.50;;;12.01;100.00
76694;BME280;69667;52.136;5.424;2023-05-10T03:20:09;100964.44;;;11.98;100.00
76694;BME280;69667;52.136;5.424;2023-05-10T03:22:39;100955.56;;;11.96;100.00
76694;BME280;69667;52.136;5.424;2023-05-10T03:25:08;100965.78;;;11.93;100.00
76694;BME280;69667;52.136;5.424;2023-05-10T03:27:40;100970.06;;;11.95;100.00
76694;BME280;69667;52.136;5.424;2023-05-10T03:30:08;100975.59;;;11.94;100.00
76694;BME280;69667;52.136;5.424;2023-05-10T03:32:36;100975.72;;;11.92;100.00
76694;BME280;69667;52.136;5.424;2023-05-10T03:35:08;100967.59;;;11.92;100.00
76694;BME280;69667;52.136;5.424;2023-05-10T03:37:35;100969.56;;;11.90;100.00
76694;BME280;69667;52.136;5.424;2023-05-10T03:40:02;100967.59;;;11.92;100.00
76694;BME280;69667;52.136;5.424;2023-05-10T03:42:32;100968.72;;;11.90;100.00
76694;BME280;69667;52.136;5.424;2023-05-10T03:44:58;100968.72;;;11.90;100.00
76694;BME280;69667;52.136;5.424;2023-05-10T03:47:25;100965.16;;;11.89;100.00
76694;BME280;69667;52.136;5.424;2023-05-10T03:49:52;100965.03;;;11.91;100.00
76694;BME280;69667;52.136;5.424;2023-05-10T03:52:18;100961.22;;;11.93;100.00
76694;BME280;69667;52.136;5.424;2023-05-10T03:54:45;100973.63;;;11.96;100.00
76694;BME280;69667;52.136;5.424;2023-05-10T03:57:11;100966.03;;;12.01;100.00
76694;BME280;69667;52.136;5.424;2023-05-10T03:59:38;100965.03;;;12.02;100.00
76694;BME280;69667;52.136;5.424;2023-05-10T04:02:05;100972.56;;;11.98;100.00
76694;BME280;69667;52.136;5.424;2023-05-10T04:04:31;100975.59;;;11.94;100.00
76694;BME280;69667;52.136;5.424;2023-05-10T04:06:58;100968.22;;;11.96;100.00
76694;BME280;69667;52.136;5.424;2023-05-10T04:09:24;100982.75;;;11.95;100.00
76694;BME280;69667;52.136;5.424;2023-05-10T04:11:51;100968.34;;;11.94;100.00
76694;BME280;69667;52.136;5.424;2023-05-10T04:14:17;100976.59;;;11.93;100.00
76694;BME280;69667;52.136;5.424;2023-05-10T04:16:44;100983.84;;;11.92;100.00
76694;BME280;69667;52.136;5.424;2023-05-10T04:19:11;100980.38;;;11.90;100.00
76694;BME280;69667;52.136;5.424;2023-05-10T04:21:37;100972.41;;;11.89;100.00
76694;BME280;69667;52.136;5.424;2023-05-10T04:24:04;100981.25;;;11.91;100.00
76694;BME280;69667;52.136;5.424;2023-05-10T04:26:31;100972.91;;;11.94;100.00
76694;BME280;69667;52.136;5.424;2023-05-10T04:28:57;100971.06;;;11.94;100.00
76694;BME280;69667;52.136;5.424;2023-05-10T04:31:24;100976.47;;;11.94;100.00
76694;BME280;69667;52.136;5.424;2023-05-10T04:33:50;100979.78;;;11.98;100.00
76694;BME280;69667;52.136;5.424;2023-05-10T04:36:17;100978.69;;;12.00;100.00
76694;BME280;69667;52.136;5.424;2023-05-10T04:38:43;100980.53;;;12.00;100.00
76694;BME280;69667;52.136;5.424;2023-05-10T04:41:10;100982.50;;;11.98;100.00
76694;BME280;69667;52.136;5.424;2023-05-10T04:43:37;100970.69;;;11.99;100.00
76694;BME280;69667;52.136;5.424;2023-05-10T04:46:05;100977.84;;;12.00;100.00
76694;BME280;69667;52.136;5.424;2023-05-10T04:48:31;100979.56;;;12.01;100.00
76694;BME280;69667;52.136;5.424;2023-05-10T04:50:58;100989.28;;;12.03;100.00
76694;BME280;69667;52.136;5.424;2023-05-10T04:53:24;100991.13;;;12.03;100.00
76694;BME280;69667;52.136;5.424;2023-05-10T04:55:51;100995.19;;;12.08;100.00
76694;BME280;69667;52.136;5.424;2023-05-10T04:58:17;100990.63;;;12.09;100.00
76694;BME280;69667;52.136;5.424;2023-05-10T05:00:44;100997.66;;;12.11;100.00
76694;BME280;69667;52.136;5.424;2023-05-10T05:03:11;100999.22;;;12.14;100.00
76694;BME280;69667;52.136;5.424;2023-05-10T05:05:37;101004.41;;;12.17;100.00
76694;BME280;69667;52.136;5.424;2023-05-10T05:08:04;101003.31;;;12.19;100.00
76694;BME280;69667;52.136;5.424;2023-05-10T05:10:32;101007.00;;;12.18;100.00
76694;BME280;69667;52.136;5.424;2023-05-10T05:12:58;101007.00;;;12.18;100.00
76694;BME280;69667;52.136;5.424;2023-05-10T05:15:25;101021.38;;;12.19;100.00
76694;BME280;69667;52.136;5.424;2023-05-10T05:17:51;101011.56;;;12.18;100.00
76694;BME280;69667;52.136;5.424;2023-05-10T05:20:18;101019.41;;;12.21;100.00
76694;BME280;69667;52.136;5.424;2023-05-10T05:22:45;101010.69;;;12.17;100.00
76694;BME280;69667;52.136;5.424;2023-05-10T05:25:11;101006.88;;;12.20;100.00
76694;BME280;69667;52.136;5.424;2023-05-10T05:27:39;101021.00;;;12.23;100.00
76694;BME280;69667;52.136;5.424;2023-05-10T05:30:06;101017.34;;;12.24;100.00
76694;BME280;69667;52.136;5.424;2023-05-10T05:32:33;101025.97;;;12.29;100.00
76694;BME280;69667;52.136;5.424;2023-05-10T05:35:00;101027.03;;;12.27;100.00
76694;BME280;69667;52.136;5.424;2023-05-10T05:37:26;101026.91;;;12.28;100.00
76694;BME280;69667;52.136;5.424;2023-05-10T05:39:53;101031.25;;;12.31;100.00
76694;BME280;69667;52.136;5.424;2023-05-10T05:42:21;101027.41;;;12.33;100.00
76694;BME280;69667;52.136;5.424;2023-05-10T05:44:47;101027.41;;;12.33;100.00
76694;BME280;69667;52.136;5.424;2023-05-10T05:47:14;101032.00;;;12.33;100.00
76694;BME280;69667;52.136;5.424;2023-05-10T05:49:40;101030.50;;;12.29;100.00
76694;BME280;69667;52.136;5.424;2023-05-10T05:52:07;101035.66;;;12.32;100.00
76694;BME280;69667;52.136;5.424;2023-05-10T05:54:33;101039.88;;;12.36;100.00
76694;BME280;69667;52.136;5.424;2023-05-10T05:57:00;101041.94;;;12.32;100.00
76694;BME280;69667;52.136;5.424;2023-05-10T05:59:27;101036.41;;;12.34;100.00
76694;BME280;69667;52.136;5.424;2023-05-10T06:01:54;101045.78;;;12.30;100.00
76694;BME280;69667;52.136;5.424;2023-05-10T06:04:21;101056.59;;;12.30;100.00
76694;BME280;69667;52.136;5.424;2023-05-10T06:06:47;101049.19;;;12.32;100.00
76694;BME280;69667;52.136;5.424;2023-05-10T06:09:14;101053.97;;;12.28;100.00
76694;BME280;69667;52.136;5.424;2023-05-10T06:11:40;101060.16;;;12.30;100.00
76694;BME280;69667;52.136;5.424;2023-05-10T06:14:07;101060.78;;;12.34;100.00
76694;BME280;69667;52.136;5.424;2023-05-10T06:16:34;101060.66;;;12.35;100.00
76694;BME280;69667;52.136;5.424;2023-05-10T06:19:01;101064.59;;;12.31;100.00
76694;BME280;69667;52.136;5.424;2023-05-10T06:21:28;101070.09;;;12.19;100.00
76694;BME280;69667;52.136;5.424;2023-05-10T06:23:55;101076.50;;;12.18;100.00
76694;BME280;69667;52.136;5.424;2023-05-10T06:26:21;101073.66;;;12.19;100.00
76694;BME280;69667;52.136;5.424;2023-05-10T06:28:48;101075.75;;;12.27;100.00
76694;BME280;69667;52.136;5.424;2023-05-10T06:31:14;101068.38;;;12.29;100.00
76694;BME280;69667;52.136;5.424;2023-05-10T06:33:41;101066.81;;;12.37;100.00
76694;BME280;69667;52.136;5.424;2023-05-10T06:36:08;101065.72;;;12.51;100.00
76694;BME280;69667;52.136;5.424;2023-05-10T06:38:35;101069.75;;;12.45;100.00
76694;BME280;69667;52.136;5.424;2023-05-10T06:41:01;101074.22;;;12.57;100.00
76694;BME280;69667;52.136;5.424;2023-05-10T06:43:28;101075.34;;;12.55;100.00
76694;BME280;69667;52.136;5.424;2023-05-10T06:45:55;101074.81;;;12.61;100.00
76694;BME280;69667;52.136;5.424;2023-05-10T06:48:22;101078.28;;;12.63;100.00
76694;BME280;69667;52.136;5.424;2023-05-10T06:50:49;101081.75;;;12.65;100.00
76694;BME280;69667;52.136;5.424;2023-05-10T06:53:15;101082.69;;;12.64;100.00
76694;BME280;69667;52.136;5.424;2023-05-10T06:55:42;101088.63;;;12.58;100.00
76694;BME280;69667;52.136;5.424;2023-05-10T06:58:08;101095.00;;;12.57;100.00
76694;BME280;69667;52.136;5.424;2023-05-10T07:00:35;101096.13;;;12.54;100.00
76694;BME280;69667;52.136;5.424;2023-05-10T07:03:05;101088.25;;;12.62;100.00
76694;BME280;69667;52.136;5.424;2023-05-10T07:05:32;101095.28;;;12.65;100.00
76694;BME280;69667;52.136;5.424;2023-05-10T07:07:58;101096.25;;;12.64;100.00
76694;BME280;69667;52.136;5.424;2023-05-10T07:10:25;101099.31;;;12.59;100.00
76694;BME280;69667;52.136;5.424;2023-05-10T07:12:51;101105.00;;;12.67;100.00
76694;BME280;69667;52.136;5.424;2023-05-10T07:15:18;101111.41;;;12.66;100.00
76694;BME280;69667;52.136;5.424;2023-05-10T07:17:45;101111.03;;;12.60;100.00
76694;BME280;69667;52.136;5.424;2023-05-10T07:20:12;101106.56;;;12.59;100.00
76694;BME280;69667;52.136;5.424;2023-05-10T07:22:39;101109.28;;;12.59;100.00
76694;BME280;69667;52.136;5.424;2023-05-10T07:25:05;101107.19;;;12.62;100.00
76694;BME280;69667;52.136;5.424;2023-05-10T07:27:32;101110.91;;;12.61;100.00
76694;BME280;69667;52.136;5.424;2023-05-10T07:30:00;101103.75;;;12.60;100.00
76694;BME280;69667;52.136;5.424;2023-05-10T07:32:29;101112.88;;;12.70;100.00
76694;BME280;69667;52.136;5.424;2023-05-10T07:35:08;101122.97;;;12.80;100.00
76694;BME280;69667;52.136;5.424;2023-05-10T07:37:35;101126.91;;;12.75;100.00
76694;BME280;69667;52.136;5.424;2023-05-10T07:40:02;101125.31;;;12.84;100.00
76694;BME280;69667;52.136;5.424;2023-05-10T07:42:28;101128.25;;;12.92;100.00
76694;BME280;69667;52.136;5.424;2023-05-10T07:44:55;101133.59;;;13.05;100.00
76694;BME280;69667;52.136;5.424;2023-05-10T07:47:22;101134.31;;;13.18;99.37
76694;BME280;69667;52.136;5.424;2023-05-10T07:49:49;101133.94;;;13.22;98.82
76694;BME280;69667;52.136;5.424;2023-05-10T07:52:16;101135.28;;;13.39;98.75
76694;BME280;69667;52.136;5.424;2023-05-10T07:54:42;101136.88;;;13.41;98.01
76694;BME280;69667;52.136;5.424;2023-05-10T07:57:09;101143.13;;;13.53;97.79
76694;BME280;69667;52.136;5.424;2023-05-10T07:59:36;101140.44;;;13.53;97.91
76694;BME280;69667;52.136;5.424;2023-05-10T08:02:02;101151.16;;;13.54;97.56
76694;BME280;69667;52.136;5.424;2023-05-10T08:04:29;101154.13;;;13.51;98.18
76694;BME280;69667;52.136;5.424;2023-05-10T08:06:58;101150.19;;;13.44;97.62
76694;BME280;69667;52.136;5.424;2023-05-10T08:09:29;101152.19;;;13.31;97.32
76694;BME280;69667;52.136;5.424;2023-05-10T08:11:55;101157.34;;;13.34;97.48
76694;BME280;69667;52.136;5.424;2023-05-10T08:14:22;101157.47;;;13.33;97.48
76694;BME280;69667;52.136;5.424;2023-05-10T08:16:49;101164.47;;;13.35;97.89
76694;BME280;69667;52.136;5.424;2023-05-10T08:19:15;101158.22;;;13.35;98.11
76694;BME280;69667;52.136;5.424;2023-05-10T08:21:48;101165.59;;;13.33;97.97
76694;BME280;69667;52.136;5.424;2023-05-10T08:24:15;101166.59;;;13.32;97.78
76694;BME280;69667;52.136;5.424;2023-05-10T08:26:41;101170.03;;;13.34;98.06
76694;BME280;69667;52.136;5.424;2023-05-10T08:29:08;101158.81;;;13.27;98.05
76694;BME280;69667;52.136;5.424;2023-05-10T08:31:34;101166.69;;;13.30;97.24
76694;BME280;69667;52.136;5.424;2023-05-10T08:34:00;101176.31;;;13.45;97.47
76694;BME280;69667;52.136;5.424;2023-05-10T08:36:27;101176.56;;;13.53;97.00
76694;BME280;69667;52.136;5.424;2023-05-10T08:38:54;101180.28;;;13.41;96.71
76694;BME280;69667;52.136;5.424;2023-05-10T08:41:21;101180.03;;;13.33;96.76
76694;BME280;69667;52.136;5.424;2023-05-10T08:43:50;101185.31;;;13.24;97.01
76694;BME280;69667;52.136;5.424;2023-05-10T08:46:18;101185.69;;;13.30;97.44
76694;BME280;69667;52.136;5.424;2023-05-10T08:48:47;101192.47;;;13.47;97.09
76694;BME280;69667;52.136;5.424;2023-05-10T08:51:17;101190.13;;;13.53;97.40
76694;BME280;69667;52.136;5.424;2023-05-10T08:53:44;101200.06;;;13.64;97.47
76694;BME280;69667;52.136;5.424;2023-05-10T08:56:11;101197.34;;;13.64;97.08
76694;BME280;69667;52.136;5.424;2023-05-10T08:58:38;101203.66;;;13.64;96.74
76694;BME280;69667;52.136;5.424;2023-05-10T09:01:05;101201.28;;;13.71;96.47
76694;BME280;69667;52.136;5.424;2023-05-10T09:03:32;101203.97;;;13.93;95.12
76694;BME280;69667;52.136;5.424;2023-05-10T09:05:58;101202.03;;;14.27;95.64
76694;BME280;69667;52.136;5.424;2023-05-10T09:08:26;101203.56;;;14.40;93.82
76694;BME280;69667;52.136;5.424;2023-05-10T09:10:54;101208.34;;;14.68;90.98
76694;BME280;69667;52.136;5.424;2023-05-10T09:13:22;101196.81;;;15.06;90.54
76694;BME280;69667;52.136;5.424;2023-05-10T09:15:49;101194.88;;;15.17;89.80
76694;BME280;69667;52.136;5.424;2023-05-10T09:18:16;101192.47;;;15.24;90.65
76694;BME280;69667;52.136;5.424;2023-05-10T09:20:42;101198.63;;;15.47;90.67
76694;BME280;69667;52.136;5.424;2023-05-10T09:23:09;101198.19;;;15.51;88.56
76694;BME280;69667;52.136;5.424;2023-05-10T09:25:36;101211.91;;;15.80;88.12
76694;BME280;69667;52.136;5.424;2023-05-10T09:28:08;101202.63;;;16.11;84.72
76694;BME280;69667;52.136;5.424;2023-05-10T09:30:35;101206.53;;;16.37;86.39
76694;BME280;69667;52.136;5.424;2023-05-10T09:33:02;101202.19;;;16.44;81.59
76694;BME280;69667;52.136;5.424;2023-05-10T09:35:31;101202.34;;;16.81;84.42
76694;BME280;69667;52.136;5.424;2023-05-10T09:38:04;101213.28;;;17.27;83.84
76694;BME280;69667;52.136;5.424;2023-05-10T09:40:31;101207.81;;;17.27;79.45
76694;BME280;69667;52.136;5.424;2023-05-10T09:43:03;101211.47;;;17.54;81.59
76694;BME280;69667;52.136;5.424;2023-05-10T09:45:31;101217.25;;;17.79;79.22
76694;BME280;69667;52.136;5.424;2023-05-10T09:47:59;101222.38;;;17.82;79.80
76694;BME280;69667;52.136;5.424;2023-05-10T09:50:26;101218.53;;;17.75;80.97
76694;BME280;69667;52.136;5.424;2023-05-10T09:52:54;101218.38;;;17.76;78.17
76694;BME280;69667;52.136;5.424;2023-05-10T09:55:24;101220.59;;;17.26;78.23
76694;BME280;69667;52.136;5.424;2023-05-10T09:58:01;101225.44;;;16.86;80.51
76694;BME280;69667;52.136;5.424;2023-05-10T10:00:34;101232.38;;;16.52;82.64
76694;BME280;69667;52.136;5.424;2023-05-10T10:03:01;101234.47;;;16.20;83.55
76694;BME280;69667;52.136;5.424;2023-05-10T10:05:32;101237.72;;;15.85;83.71
76694;BME280;69667;52.136;5.424;2023-05-10T10:08:03;101236.53;;;15.69;85.01
76694;BME280;69667;52.136;5.424;2023-05-10T10:10:31;101233.75;;;15.59;86.09
76694;BME280;69667;52.136;5.424;2023-05-10T10:12:58;101242.19;;;15.56;86.96
76694;BME280;69667;52.136;5.424;2023-05-10T10:15:25;101236.88;;;15.55;86.77
76694;BME280;69667;52.136;5.424;2023-05-10T10:17:53;101246.81;;;15.65;86.54
76694;BME280;69667;52.136;5.424;2023-05-10T10:20:21;101250.69;;;15.72;85.76
76694;BME280;69667;52.136;5.424;2023-05-10T10:22:48;101249.66;;;16.03;87.46
76694;BME280;69667;52.136;5.424;2023-05-10T10:25:16;101244.25;;;16.32;83.94
76694;BME280;69667;52.136;5.424;2023-05-10T10:35:54;101251.63;;;16.01;84.33
76694;BME280;69667;52.136;5.424;2023-05-10T10:38:21;101255.63;;;15.97;82.54
76694;BME280;69667;52.136;5.424;2023-05-10T10:41:02;101261.91;;;15.79;83.16
76694;BME280;69667;52.136;5.424;2023-05-10T10:43:29;101253.16;;;15.75;82.19
76694;BME280;69667;52.136;5.424;2023-05-10T10:48:41;101255.63;;;15.97;84.36
76694;BME280;69667;52.136;5.424;2023-05-10T10:51:08;101258.50;;;15.96;84.78
76694;BME280;69667;52.136;5.424;2023-05-10T10:53:38;101258.19;;;15.80;82.69
76694;BME280;69667;52.136;5.424;2023-05-10T10:56:08;101260.53;;;15.94;84.29
76694;BME280;69667;52.136;5.424;2023-05-10T10:58:37;101254.50;;;16.00;84.31
76694;BME280;69667;52.136;5.424;2023-05-10T11:01:17;101256.34;;;15.99;83.64
76694;BME280;69667;52.136;5.424;2023-05-10T11:06:34;101256.50;;;15.88;81.30
76694;BME280;69667;52.136;5.424;2023-05-10T11:09:08;101262.06;;;15.87;82.74
76694;BME280;69667;52.136;5.424;2023-05-10T11:11:35;101260.91;;;15.80;82.43
76694;BME280;69667;52.136;5.424;2023-05-10T11:14:04;101261.97;;;15.58;81.26
76694;BME280;69667;52.136;5.424;2023-05-10T11:16:42;101264.53;;;15.50;84.23
76694;BME280;69667;52.136;5.424;2023-05-10T11:19:14;101260.78;;;15.51;85.80
76694;BME280;69667;52.136;5.424;2023-05-10T11:21:53;101262.78;;;15.49;84.88
76694;BME280;69667;52.136;5.424;2023-05-10T11:24:39;101263.41;;;15.32;84.26
76694;BME280;69667;52.136;5.424;2023-05-10T11:27:05;101264.44;;;15.41;84.93
76694;BME280;69667;52.136;5.424;2023-05-10T11:29:32;101261.66;;;15.52;86.54
76694;BME280;69667;52.136;5.424;2023-05-10T11:32:00;101263.34;;;15.83;85.64
76694;BME280;69667;52.136;5.424;2023-05-10T11:34:28;101262.59;;;16.20;83.02
76694;BME280;69667;52.136;5.424;2023-05-10T11:36:57;101266.09;;;16.70;83.31
76694;BME280;69667;52.136;5.424;2023-05-10T11:39:28;101260.19;;;17.40;83.54
76694;BME280;69667;52.136;5.424;2023-05-10T11:41:55;101266.16;;;18.17;76.68
76694;BME280;69667;52.136;5.424;2023-05-10T11:44:22;101261.78;;;18.68;75.89
76694;BME280;69667;52.136;5.424;2023-05-10T11:46:49;101268.75;;;19.06;76.94
76694;BME280;69667;52.136;5.424;2023-05-10T11:49:16;101254.16;;;19.23;71.93
76694;BME280;69667;52.136;5.424;2023-05-10T11:51:42;101255.28;;;18.87;74.41
76694;BME280;69667;52.136;5.424;2023-05-10T11:54:10;101260.53;;;18.63;71.94
76694;BME280;69667;52.136;5.424;2023-05-10T11:56:38;101268.75;;;18.45;74.07
76694;BME280;69667;52.136;5.424;2023-05-10T11:59:06;101261.78;;;18.06;71.93
76694;BME280;69667;52.136;5.424;2023-05-10T12:01:33;101262.19;;;17.57;74.63
76694;BME280;69667;52.136;5.424;2023-05-10T12:04:00;101273.88;;;17.30;77.55
76694;BME280;69667;52.136;5.424;2023-05-10T12:06:29;101259.97;;;17.14;78.08
76694;BME280;69667;52.136;5.424;2023-05-10T12:08:57;101267.75;;;17.00;77.50
76694;BME280;69667;52.136;5.424;2023-05-10T12:11:25;101277.13;;;16.97;81.33
76694;BME280;69667;52.136;5.424;2023-05-10T12:13:53;101275.97;;;16.90;77.87
76694;BME280;69667;52.136;5.424;2023-05-10T12:16:28;101277.25;;;17.05;77.58
76694;BME280;69667;52.136;5.424;2023-05-10T12:19:00;101268.59;;;17.10;76.46
76694;BME280;69667;52.136;5.424;2023-05-10T12:21:30;101273.47;;;17.25;76.71
76694;BME280;69667;52.136;5.424;2023-05-10T12:24:01;101274.44;;;17.34;74.69
76694;BME280;69667;52.136;5.424;2023-05-10T12:26:29;101268.84;;;17.35;74.71
76694;BME280;69667;52.136;5.424;2023-05-10T12:29:12;101276.66;;;17.67;74.98
76694;BME280;69667;52.136;5.424;2023-05-10T12:31:56;101272.66;;;17.89;72.90
76694;BME280;69667;52.136;5.424;2023-05-10T12:34:24;101272.25;;;18.11;72.55
76694;BME280;69667;52.136;5.424;2023-05-10T12:36:53;101269.53;;;18.55;71.72
76694;BME280;69667;52.136;5.424;2023-05-10T12:39:20;101271.53;;;18.88;72.41
76694;BME280;69667;52.136;5.424;2023-05-10T12:41:46;101261.31;;;19.67;73.11
76694;BME280;69667;52.136;5.424;2023-05-10T12:44:14;101261.59;;;19.90;68.55
76694;BME280;69667;52.136;5.424;2023-05-10T12:46:40;101268.75;;;19.83;67.14
76694;BME280;69667;52.136;5.424;2023-05-10T12:49:07;101265.53;;;19.54;68.57
76694;BME280;69667;52.136;5.424;2023-05-10T12:51:35;101263.97;;;19.51;69.09
76694;BME280;69667;52.136;5.424;2023-05-10T12:54:02;101264.03;;;19.34;68.57
76694;BME280;69667;52.136;5.424;2023-05-10T12:56:29;101280.34;;;19.18;67.59
76694;BME280;69667;52.136;5.424;2023-05-10T12:58:55;101280.16;;;19.19;70.41
76694;BME280;69667;52.136;5.424;2023-05-10T13:01:22;101280.16;;;19.19;70.65
76694;BME280;69667;52.136;5.424;2023-05-10T13:03:51;101278.16;;;19.04;71.82
76694;BME280;69667;52.136;5.424;2023-05-10T13:06:18;101286.47;;;18.94;69.37